Time;durP1;ratioP1;P1;durP2;ratioP2;P2;SDS_P1;SDS_P2;PMS_P1;PMS_P2;Temp;Humidity;BMP_temperature;BMP_pressure;BME280_temperature;BME280_humidity;BME280_pressure;Samples;Min_cycle;Max_cycle;Signal;HPM_P1;HPM_P2
2020/12/07 00:01:02;;;;;;;6.50;5.77;;;;;;;;;;4596395;28;20448;-81
2020/12/07 00:03:18;;;;;;;6.70;5.50;;;;;;;;;;4592487;28;20926;-80
2020/12/07 00:05:36;;;;;;;7.43;5.93;;;;;;;;;;4596186;28;20808;-82
2020/12/07 00:07:52;;;;;;;8.53;5.63;;;;;;;;;;4593745;28;20520;-80
2020/12/07 00:10:08;;;;;;;9.30;5.93;;;;;;;;;;4596044;28;20592;-80
2020/12/07 00:12:26;;;;;;;8.17;6.13;;;9.40;71.50;;;;;;4594029;28;20439;-80
2020/12/07 00:14:43;;;;;;;7.40;5.93;;;;;;;;;;4595099;28;20463;-78
2020/12/07 00:16:58;;;;;;;6.77;5.83;;;;;;;;;;4594327;28;20483;-80
2020/12/07 00:19:16;;;;;;;10.23;5.90;;;10.80;72.00;;;;;;4595205;28;20869;-81
2020/12/07 00:21:35;;;;;;;7.73;5.73;;;10.20;71.70;;;;;;4593045;28;20495;-80
2020/12/07 00:23:51;;;;;;;7.70;5.43;;;12.00;72.40;;;;;;4592417;28;20475;-78
2020/12/07 00:26:10;;;;;;;7.23;5.73;;;;;;;;;;4595371;28;20803;-80
2020/12/07 00:28:26;;;;;;;8.23;6.13;;;;;;;;;;4593739;28;20994;-82
2020/12/07 00:30:45;;;;;;;6.63;5.57;;;11.70;72.70;;;;;;4594457;28;20543;-80
2020/12/07 00:33:01;;;;;;;8.60;6.17;;;;;;;;;;4593321;28;20447;-80
2020/12/07 00:35:17;;;;;;;23.50;19.30;;;;;;;;;;4594121;28;20444;-75
2020/12/07 00:37:33;;;;;;;10.07;7.50;;;;;;;;;;4592483;28;20452;-77
2020/12/07 00:39:49;;;;;;;6.87;5.93;;;;;;;;;;4593866;28;20476;-78
2020/12/07 00:42:08;;;;;;;7.87;5.80;;;11.50;69.80;;;;;;4590454;28;20456;-79
2020/12/07 00:44:24;;;;;;;6.97;5.87;;;11.10;69.20;;;;;;4592924;28;20472;-75
2020/12/07 00:46:41;;;;;;;6.70;5.60;;;11.50;69.00;;;;;;4589314;28;20479;-75
2020/12/07 00:48:57;;;;;;;7.57;6.20;;;10.70;68.40;;;;;;4593850;28;20435;-75
2020/12/07 00:51:13;;;;;;;8.47;5.83;;;11.30;68.80;;;;;;4592435;28;21027;-80
2020/12/07 00:53:28;;;;;;;7.13;5.83;;;9.90;68.40;;;;;;4595046;28;20983;-77
2020/12/07 00:55:46;;;;;;;7.43;5.73;;;9.80;69.00;;;;;;4591492;28;20502;-77
2020/12/07 00:58:02;;;;;;;9.33;6.20;;;11.90;70.50;;;;;;4592753;28;20978;-77
2020/12/07 01:00:19;;;;;;;7.90;6.43;;;9.80;69.80;;;;;;4593105;28;20501;-80
2020/12/07 01:02:39;;;;;;;7.63;6.00;;;;;;;;;;4593942;28;20444;-78
2020/12/07 01:04:58;;;;;;;8.47;6.57;;;11.90;71.60;;;;;;4592304;28;21001;-79
2020/12/07 01:07:14;;;;;;;8.83;5.47;;;;;;;;;;4593284;28;20437;-78
2020/12/07 01:09:34;;;;;;;7.40;5.97;;;11.60;71.70;;;;;;4594222;28;20479;-78
2020/12/07 01:12:00;;;;;;;7.80;5.67;;;10.70;66.50;;;;;;4593072;28;20527;-80
2020/12/07 01:14:27;;;;;;;7.47;5.50;;;;;;;;;;4593421;28;20479;-78
2020/12/07 01:16:46;;;;;;;7.60;5.27;;;;;;;;;;4590511;28;20857;-79
2020/12/07 01:19:05;;;;;;;6.50;5.10;;;;;;;;;;4592696;28;20440;-79
2020/12/07 01:21:24;;;;;;;6.47;4.90;;;;;;;;;;4590221;28;20433;-80
2020/12/07 01:23:40;;;;;;;6.70;4.83;;;10.90;71.90;;;;;;4593608;28;20436;-78
2020/12/07 01:25:56;;;;;;;6.77;5.10;;;;;;;;;;4590338;28;20675;-78
2020/12/07 01:28:13;;;;;;;8.40;4.73;;;;;;;;;;4592960;28;20498;-80
2020/12/07 01:30:31;;;;;;;6.30;4.77;;;;;;;;;;4590737;28;20486;-77
2020/12/07 01:32:47;;;;;;;7.27;4.97;;;;;;;;;;4592555;28;20448;-77
2020/12/07 01:35:04;;;;;;;6.93;4.30;;;11.30;71.50;;;;;;4591623;28;20452;-79
2020/12/07 01:37:22;;;;;;;6.23;5.00;;;;;;;;;;4593709;28;20856;-81
2020/12/07 01:39:38;;;;;;;5.97;4.70;;;11.20;71.90;;;;;;4591730;28;20440;-81
2020/12/07 01:41:54;;;;;;;4.70;4.10;;;;;;;;;;4591812;28;20938;-80
2020/12/07 01:44:10;;;;;;;5.53;4.20;;;11.20;71.30;;;;;;4593594;28;20487;-81
2020/12/07 01:46:26;;;;;;;5.13;4.47;;;;;;;;;;4590899;28;20463;-79
2020/12/07 01:48:46;;;;;;;6.03;4.20;;;;;;;;;;4575161;28;20445;-79
2020/12/07 01:51:03;;;;;;;5.33;4.37;;;10.40;70.50;;;;;;4588487;28;20440;-79
2020/12/07 01:53:22;;;;;;;4.87;4.37;;;10.30;70.60;;;;;;4591870;28;20845;-77
2020/12/07 01:55:39;;;;;;;7.20;4.60;;;9.60;70.20;;;;;;4589983;28;20444;-77
2020/12/07 01:57:55;;;;;;;7.10;4.23;;;;;;;;;;4594020;28;20498;-77
2020/12/07 02:00:12;;;;;;;5.20;4.17;;;;;;;;;;4591455;28;20957;-78
2020/12/07 02:02:46;;;;;;;5.30;4.03;;;;;;;;;;4592885;28;20982;-77
2020/12/07 02:05:06;;;;;;;6.60;4.03;;;11.90;71.90;;;;;;4591700;28;20464;-77
2020/12/07 02:07:23;;;;;;;4.87;4.33;;;;;;;;;;4592629;28;20838;-77
2020/12/07 02:09:44;;;;;;;6.23;4.30;;;10.90;71.30;;;;;;4590799;28;20443;-77
2020/12/07 02:11:59;;;;;;;5.10;4.03;;;10.10;70.90;;;;;;4593282;28;20475;-79
2020/12/07 02:14:17;;;;;;;5.10;4.17;;;10.70;71.40;;;;;;4589874;28;20475;-77
2020/12/07 02:16:34;;;;;;;4.90;4.20;;;;;;;;;;4591523;28;20893;-78
2020/12/07 02:18:55;;;;;;;6.17;4.50;;;11.70;67.10;;;;;;4593228;28;20870;-78
2020/12/07 02:21:13;;;;;;;4.77;3.70;;;;;;;;;;4590420;28;20428;-78
2020/12/07 02:23:58;;;;;;;5.77;4.37;;;10.10;70.50;;;;;;4584316;28;20530;-78
2020/12/07 02:26:18;;;;;;;7.93;4.10;;;11.30;71.20;;;;;;4591237;28;20455;-77
2020/12/07 02:28:36;;;;;;;6.27;4.37;;;;;;;;;;4592487;28;20479;-79
2020/12/07 02:30:53;;;;;;;5.17;4.43;;;9.40;70.20;;;;;;4589983;28;20448;-79
2020/12/07 02:33:09;;;;;;;6.33;4.20;;;;;;;;;;4592453;28;20451;-77
2020/12/07 02:35:25;;;;;;;5.43;3.97;;;10.60;70.50;;;;;;4589895;28;20538;-77
2020/12/07 02:37:43;;;;;;;5.90;4.10;;;11.30;66.60;;;;;;4593803;28;20448;-77
2020/12/07 02:39:58;;;;;;;5.67;4.00;;;9.90;70.20;;;;;;4590183;28;20444;-77
2020/12/07 02:42:16;;;;;;;5.53;4.50;;;;;;;;;;4593494;28;20908;-77
2020/12/07 02:44:32;;;;;;;5.13;4.20;;;10.50;70.90;;;;;;4590511;28;20523;-78
2020/12/07 02:46:58;;;;;;;5.20;4.50;;;;;;;;;;4592795;28;20863;-78
2020/12/07 02:49:14;;;;;;;5.00;4.40;;;10.70;70.90;;;;;;4594987;28;20498;-77
2020/12/07 02:51:37;;;;;;;5.83;4.10;;;;;;;;;;4593374;28;20498;-78
2020/12/07 02:53:57;;;;;;;5.80;4.53;;;;;;;;;;4595446;28;20846;-77
2020/12/07 02:56:12;;;;;;;5.13;3.83;;;11.30;71.20;;;;;;4593140;28;20945;-77
2020/12/07 02:58:36;;;;;;;6.23;4.33;;;;;;;;;;4595596;28;20439;-78
2020/12/07 03:00:53;;;;;;;5.40;4.37;;;;;;;;;;4593006;28;20442;-77
2020/12/07 03:03:08;;;;;;;5.53;4.57;;;10.50;70.60;;;;;;4595598;28;20486;-78
2020/12/07 03:05:28;;;;;;;7.03;4.53;;;;;;;;;;4592789;28;20463;-78
2020/12/07 03:07:51;;;;;;;5.23;4.30;;;10.50;70.50;;;;;;4595518;28;20440;-79
2020/12/07 03:10:09;;;;;;;6.60;4.33;;;10.10;70.10;;;;;;4592822;28;20440;-78
2020/12/07 03:12:30;;;;;;;5.00;4.50;;;11.40;70.90;;;;;;4595170;28;20917;-77
2020/12/07 03:14:49;;;;;;;5.23;4.30;;;;;;;;;;4592962;28;20558;-77
2020/12/07 03:17:05;;;;;;;5.20;4.33;;;;;;;;;;4594773;28;20464;-77
2020/12/07 03:19:21;;;;;;;4.97;4.40;;;10.30;70.30;;;;;;4594926;28;20942;-78
2020/12/07 03:21:38;;;;;;;4.30;3.90;;;;;;;;;;4595558;28;20444;-78
2020/12/07 03:23:58;;;;;;;5.63;4.57;;;;;;;;;;4594321;28;20440;-77
2020/12/07 03:26:18;;;;;;;6.30;4.70;;;;;;;;;;4593242;28;20510;-80
2020/12/07 03:28:34;;;;;;;5.13;4.37;;;10.90;66.40;;;;;;4596031;28;20486;-78
2020/12/07 03:30:50;;;;;;;6.20;4.10;;;11.80;71.40;;;;;;4592807;28;20939;-78
2020/12/07 03:33:06;;;;;;;6.07;4.57;;;;;;;;;;4594572;28;20455;-77
2020/12/07 03:35:25;;;;;;;6.67;4.97;;;;;;;;;;4592358;28;20516;-79
2020/12/07 03:37:41;;;;;;;5.27;4.60;;;;;;;;;;4594889;28;20448;-79
2020/12/07 03:39:57;;;;;;;6.67;4.70;;;;;;;;;;4592319;28;20579;-77
2020/12/07 03:42:18;;;;;;;6.60;4.50;;;10.40;70.70;;;;;;4595011;28;20425;-76
2020/12/07 03:44:35;;;;;;;5.10;4.60;;;;;;;;;;4592210;28;20480;-77
2020/12/07 03:46:50;;;;;;;5.10;4.50;;;11.20;71.60;;;;;;4594610;28;20464;-79
2020/12/07 03:49:07;;;;;;;7.10;4.77;;;;;;;;;;4592005;28;20448;-79
2020/12/07 03:51:24;;;;;;;5.27;4.50;;;11.20;71.60;;;;;;4594465;28;20431;-77
2020/12/07 03:53:42;;;;;;;5.77;4.60;;;;;;;;;;4592422;28;20452;-77
2020/12/07 03:55:59;;;;;;;7.83;4.50;;;;;;;;;;4594116;28;21418;-77
2020/12/07 03:58:16;;;;;;;6.30;4.93;;;10.70;70.80;;;;;;4592030;28;20479;-78
2020/12/07 04:00:33;;;;;;;7.13;4.70;;;;;;;;;;4593925;28;20444;-78
2020/12/07 04:02:54;;;;;;;5.87;4.73;;;11.20;66.60;;;;;;4593176;28;20428;-78
2020/12/07 04:05:21;;;;;;;6.03;3.97;;;;;;;;;;4593659;28;20474;-78
2020/12/07 04:07:41;;;;;;;5.17;4.43;;;;;;;;;;4593996;28;20436;-78
2020/12/07 04:09:57;;;;;;;6.23;4.40;;;;;;;;;;4593255;28;20432;-79
2020/12/07 04:12:13;;;;;;;6.70;4.40;;;10.60;70.60;;;;;;4595642;28;20497;-79
2020/12/07 04:14:30;;;;;;;5.27;4.57;;;;;;;;;;4592808;28;21153;-79
2020/12/07 04:16:47;;;;;;;5.87;4.67;;;;;;;;;;4595380;28;20475;-80
2020/12/07 04:19:03;;;;;;;5.10;4.00;;;10.20;70.20;;;;;;4591724;28;20448;-80
2020/12/07 04:21:19;;;;;;;5.60;4.30;;;11.20;71.00;;;;;;4595474;28;20456;-79
2020/12/07 04:23:35;;;;;;;5.67;4.57;;;;;;;;;;4592754;28;20440;-80
2020/12/07 04:25:52;;;;;;;4.57;4.10;;;10.90;70.80;;;;;;4595192;28;20475;-77
2020/12/07 04:28:08;;;;;;;5.30;4.17;;;;;;;;;;4591216;28;20475;-77
2020/12/07 04:30:24;;;;;;;6.20;4.23;;;;;;;;;;4594758;28;20432;-79
2020/12/07 04:32:40;;;;;;;7.30;4.40;;;11.20;70.80;;;;;;4592056;28;20444;-79
2020/12/07 04:34:59;;;;;;;7.07;4.30;;;;;;;;;;4594902;28;20440;-79
2020/12/07 04:37:14;;;;;;;4.67;4.10;;;10.20;70.10;;;;;;4593076;28;20455;-79
2020/12/07 04:39:30;;;;;;;5.30;3.90;;;;;;;;;;4594553;28;20436;-78
2020/12/07 04:41:47;;;;;;;5.33;3.63;;;10.80;70.20;;;;;;4591679;28;20436;-78
2020/12/07 04:44:03;;;;;;;5.37;4.10;;;;;;;;;;4577594;28;20502;-80
2020/12/07 04:46:20;;;;;;;6.37;4.30;;;9.60;64.90;;;;;;4588848;28;20491;-77
2020/12/07 04:48:36;;;;;;;6.53;4.30;;;;;;;;;;4584502;28;20703;-78
2020/12/07 04:50:55;;;;;;;5.40;4.63;;;10.90;70.30;;;;;;4594515;28;20448;-77
2020/12/07 04:53:11;;;;;;;4.57;3.97;;;11.20;70.40;;;;;;4593155;28;20776;-78
2020/12/07 04:55:28;;;;;;;8.67;4.50;;;;;;;;;;4595197;28;20448;-79
2020/12/07 04:57:45;;;;;;;4.43;3.73;;;10.70;70.10;;;;;;4592928;28;20476;-77
2020/12/07 05:00:00;;;;;;;9.37;4.47;;;11.10;70.40;;;;;;4595110;28;20436;-78
2020/12/07 05:02:17;;;;;;;5.43;4.10;;;11.30;70.50;;;;;;4592642;28;20447;-76
2020/12/07 05:04:33;;;;;;;4.33;3.30;;;;;;;;;;4594911;28;20448;-80
2020/12/07 05:06:57;;;;;;;6.67;4.30;;;10.50;69.90;;;;;;4591089;28;20455;-80
2020/12/07 05:09:13;;;;;;;5.90;3.90;;;;;;;;;;4594533;28;20433;-79
2020/12/07 05:11:29;;;;;;;7.60;4.40;;;11.10;70.30;;;;;;4592048;28;20440;-78
2020/12/07 05:13:49;;;;;;;7.67;4.10;;;;;;;;;;4594560;28;20463;-77
2020/12/07 05:16:05;;;;;;;4.83;3.77;;;;;;;;;;4592481;28;20497;-77
2020/12/07 05:18:21;;;;;;;4.80;4.00;;;;;;;;;;4594154;28;20443;-78
2020/12/07 05:20:37;;;;;;;7.13;4.47;;;;;;;;;;4590252;28;20548;-77
2020/12/07 05:22:53;;;;;;;5.23;3.80;;;11.20;70.80;;;;;;4583851;28;20499;-79
2020/12/07 05:25:09;;;;;;;7.27;4.57;;;10.00;69.90;;;;;;4575243;28;20995;-77
2020/12/07 05:27:28;;;;;;;6.07;4.40;;;11.60;71.10;;;;;;4575501;28;20444;-79
2020/12/07 05:29:58;;;;;;;7.03;4.33;;;10.40;70.50;;;;;;4575818;28;20502;-78
2020/12/07 05:32:14;;;;;;;5.50;3.97;;;11.30;71.00;;;;;;4573439;28;20452;-79
2020/12/07 05:34:32;;;;;;;5.83;4.10;;;;;;;;;;4576637;28;20808;-78
2020/12/07 05:36:54;;;;;;;5.60;4.13;;;9.30;65.50;;;;;;4574127;28;20506;-79
2020/12/07 05:39:10;;;;;;;4.67;4.17;;;;;;;;;;4575311;28;20516;-78
2020/12/07 05:41:26;;;;;;;7.33;4.37;;;;;;;;;;4574061;28;20444;-78
2020/12/07 05:43:43;;;;;;;4.77;4.10;;;;;;;;;;4576408;28;20444;-79
2020/12/07 05:46:00;;;;;;;9.33;4.77;;;11.10;71.10;;;;;;4574705;28;20990;-78
2020/12/07 05:48:18;;;;;;;5.93;4.20;;;9.70;66.00;;;;;;4576601;28;20948;-78
2020/12/07 05:50:42;;;;;;;4.87;4.00;;;11.30;66.80;;;;;;4575378;28;20429;-78
2020/12/07 05:53:00;;;;;;;5.73;3.97;;;11.50;70.90;;;;;;4594610;28;20437;-79
2020/12/07 05:55:17;;;;;;;6.73;4.83;;;10.50;70.30;;;;;;4586039;28;20449;-79
2020/12/07 05:57:46;;;;;;;8.40;4.30;;;11.60;66.80;;;;;;4575876;28;20433;-78
2020/12/07 06:00:05;;;;;;;7.70;5.20;;;11.00;71.00;;;;;;4575716;28;20833;-79
2020/12/07 06:02:27;;;;;;;7.00;4.57;;;;;;;;;;4584254;28;20440;-78
2020/12/07 06:04:43;;;;;;;7.00;3.90;;;10.60;71.00;;;;;;4593944;28;20475;-79
2020/12/07 06:07:02;;;;;;;6.50;4.03;;;;;;;;;;4592225;28;20447;-79
2020/12/07 06:09:22;;;;;;;6.63;4.40;;;10.50;66.40;;;;;;4592824;28;20456;-79
2020/12/07 06:11:41;;;;;;;4.77;4.00;;;;;;;;;;4591946;28;20455;-78
2020/12/07 06:13:57;;;;;;;9.13;6.30;;;;;;;;;;4592729;28;20478;-80
2020/12/07 06:16:14;;;;;;;5.17;4.13;;;;;;;;;;4579360;28;20453;-80
2020/12/07 06:18:30;;;;;;;6.47;4.23;;;;;;;;;;4574833;28;20444;-78
2020/12/07 06:20:47;;;;;;;8.33;4.80;;;;;;;;;;4573471;28;20531;-80
2020/12/07 06:23:04;;;;;;;5.50;4.33;;;;;;;;;;4579590;28;20947;-80
2020/12/07 06:25:20;;;;;;;6.47;3.90;;;;;;;;;;4576898;28;20483;-78
2020/12/07 06:27:37;;;;;;;6.63;4.17;;;;;;;;;;4579746;28;20849;-80
2020/12/07 06:30:01;;;;;;;4.47;3.90;;;10.60;70.80;;;;;;4577621;28;20436;-78
2020/12/07 06:32:17;;;;;;;8.23;4.53;;;;;;;;;;4593384;28;20582;-80
2020/12/07 06:34:34;;;;;;;4.90;3.87;;;;;;;;;;4596185;28;20448;-80
2020/12/07 06:36:50;;;;;;;8.67;4.30;;;;;;;;;;4595961;28;20436;-80
2020/12/07 06:39:12;;;;;;;7.93;5.40;;;10.60;66.40;;;;;;4596505;28;20446;-81
2020/12/07 06:41:33;;;;;;;6.27;4.30;;;;;;;;;;4595125;28;21018;-80
2020/12/07 06:43:57;;;;;;;9.40;5.27;;;10.30;71.30;;;;;;4597058;28;20420;-80
2020/12/07 06:46:56;;;;;;;8.30;4.70;;;11.70;67.20;;;;;;4594631;28;20475;-81
2020/12/07 06:49:12;;;;;;;8.33;4.80;;;;;;;;;;4597095;28;20430;-81
2020/12/07 06:51:32;;;;;;;5.80;4.73;;;;;;;;;;4594628;28;20439;-81
2020/12/07 06:53:49;;;;;;;7.57;4.70;;;;;;;;;;4596210;28;20432;-81
2020/12/07 06:56:08;;;;;;;8.50;4.43;;;;;;;;;;4595088;28;20448;-82
2020/12/07 06:58:44;;;;;;;8.50;4.50;;;;;;;;;;4595974;28;20435;-82
2020/12/07 07:01:10;;;;;;;6.83;4.30;;;;;;;;;;4594178;28;20515;-82
2020/12/07 07:03:26;;;;;;;6.07;4.23;;;;;;;;;;4593789;28;20871;-81
2020/12/07 07:05:42;;;;;;;7.67;4.40;;;;;;;;;;4595753;28;20487;-82
2020/12/07 07:07:59;;;;;;;7.77;4.87;;;;;;;;;;4591961;28;21033;-82
2020/12/07 07:10:16;;;;;;;10.00;5.13;;;;;;;;;;4595774;28;20493;-83
2020/12/07 07:12:34;;;;;;;7.30;5.00;;;;;;;;;;4592902;28;20444;-83
2020/12/07 07:14:52;;;;;;;7.20;5.37;;;;;;;;;;4595699;28;20827;-89
2020/12/07 07:17:10;;;;;;;7.73;5.53;;;;;;;;;;4594654;28;20514;-87
2020/12/07 07:19:26;;;;;;;5.77;4.63;;;;;;;;;;4566773;28;20920;-88
2020/12/07 07:21:53;;;;;;;6.73;4.70;;;10.80;66.30;;;;;;4599717;28;20567;-87
2020/12/07 07:24:09;;;;;;;6.30;4.20;;;;;;;;;;4614109;28;20432;-87
2020/12/07 07:26:36;;;;;;;9.47;4.53;;;;;;;;;;4611340;28;20448;-87
2020/12/07 07:28:53;;;;;;;7.27;4.57;;;;;;;;;;4615361;28;20428;-86
2020/12/07 07:31:10;;;;;;;7.23;5.00;;;;;;;;;;4607018;28;20459;-84
2020/12/07 07:33:27;;;;;;;7.50;4.40;;;;;;;;;;4593491;28;20447;-84
2020/12/07 07:35:43;;;;;;;8.17;4.80;;;;;;;;;;4595555;28;20440;-84
2020/12/07 07:38:00;;;;;;;10.97;4.50;;;;;;;;;;4592086;28;20833;-82
2020/12/07 07:40:17;;;;;;;6.07;4.70;;;;;;;;;;4594115;28;20439;-82
2020/12/07 07:42:34;;;;;;;15.37;4.63;;;;;;;;;;4590230;28;20450;-81
2020/12/07 07:44:51;;;;;;;8.47;4.30;;;;;;;;;;4592865;28;20478;-82
2020/12/07 07:47:12;;;;;;;9.40;4.60;;;;;;;;;;4591318;28;20480;-81
2020/12/07 07:49:35;;;;;;;7.83;4.57;;;;;;;;;;4594554;28;20489;-81
2020/12/07 08:00:17;;;;;;;7.37;4.70;;;;;;;;;;4593265;28;20871;-82
2020/12/07 08:15:48;;;;;;;6.53;4.57;;;;;;;;;;4592837;28;20454;-83
2020/12/07 08:18:05;;;;;;;7.60;5.13;;;;;;;;;;4592333;28;20467;-81
2020/12/07 08:20:23;;;;;;;7.00;5.10;;;;;;;;;;4593524;28;20436;-82
2020/12/07 08:22:39;;;;;;;6.33;4.57;;;;;;;;;;4592230;28;20523;-83
2020/12/07 08:24:59;;;;;;;8.17;5.27;;;;;;;;;;4594001;28;20494;-82
2020/12/07 08:27:15;;;;;;;9.50;5.43;;;;;;;;;;4591496;28;20468;-80
2020/12/07 08:29:33;;;;;;;9.37;5.57;;;;;;;;;;4593728;28;20813;-82
2020/12/07 08:31:49;;;;;;;9.33;5.47;;;;;;;;;;4592644;28;20428;-82
2020/12/07 08:34:11;;;;;;;8.40;5.23;;;;;;;;;;4592219;28;20997;-82
2020/12/07 08:36:28;;;;;;;8.83;6.00;;;;;;;;;;4593968;28;20439;-82
2020/12/07 08:38:46;;;;;;;7.13;5.93;;;;;;;;;;4592935;28;20440;-81
2020/12/07 08:41:06;;;;;;;8.37;5.70;;;;;;;;;;4593224;28;20428;-83
2020/12/07 08:43:22;;;;;;;6.43;5.33;;;;;;;;;;4592695;28;20479;-81
2020/12/07 08:45:38;;;;;;;7.00;5.80;;;;;;;;;;4593286;28;20472;-84
2020/12/07 08:47:54;;;;;;;6.57;5.30;;;;;;;;;;4592382;28;20950;-83
2020/12/07 08:50:11;;;;;;;11.10;6.00;;;;;;;;;;4593435;28;20442;-81
2020/12/07 08:52:30;;;;;;;8.60;5.90;;;;;;;;;;4590565;28;20435;-81
2020/12/07 08:54:49;;;;;;;10.70;5.97;;;;;;;;;;4576291;28;20449;-81
2020/12/07 08:57:05;;;;;;;8.83;6.10;;;;;;;;;;4591608;28;20718;-80
2020/12/07 08:59:21;;;;;;;8.17;5.80;;;;;;;;;;4594081;28;20443;-83
2020/12/07 09:01:36;;;;;;;6.00;5.40;;;;;;;;;;4591578;28;20440;-81
2020/12/07 09:03:54;;;;;;;11.77;9.47;;;;;;;;;;4593078;28;20435;-79
2020/12/07 09:06:13;;;;;;;10.37;9.27;;;11.80;72.40;;;;;;4589705;28;20475;-76
2020/12/07 09:08:31;;;;;;;6.93;5.57;;;9.00;69.80;;;;;;4593029;28;20436;-77
2020/12/07 09:10:47;;;;;;;11.07;7.03;;;11.10;70.80;;;;;;4591863;28;20467;-77
2020/12/07 09:13:03;;;;;;;14.00;6.47;;;;;;;;;;4591957;28;20446;-76
2020/12/07 09:15:19;;;;;;;12.43;6.67;;;;;;;;;;4592247;28;20428;-78
2020/12/07 09:17:36;;;;;;;8.37;7.00;;;;;;;;;;4592579;28;20541;-78
2020/12/07 09:19:54;;;;;;;8.90;6.00;;;;;;;;;;4591994;28;20447;-78
2020/12/07 09:22:11;;;;;;;9.63;6.47;;;;;;;;;;4592120;28;20546;-78
2020/12/07 09:24:27;;;;;;;9.90;6.60;;;12.30;72.90;;;;;;4592535;28;20852;-78
2020/12/07 09:26:43;;;;;;;10.83;6.83;;;;;;;;;;4590937;28;20842;-79
2020/12/07 09:28:58;;;;;;;7.10;6.37;;;;;;;;;;4592039;28;20464;-77
2020/12/07 09:31:17;;;;;;;9.53;6.50;;;;;;;;;;4591405;28;20463;-77
2020/12/07 09:33:33;;;;;;;9.40;6.83;;;;;;;;;;4592415;28;20436;-78
2020/12/07 09:35:49;;;;;;;8.37;6.57;;;;;;;;;;4589664;28;20518;-77
2020/12/07 09:38:05;;;;;;;10.10;7.43;;;11.70;73.80;;;;;;4592428;28;20451;-76
2020/12/07 09:40:24;;;;;;;9.20;7.13;;;;;;;;;;4590706;28;20768;-78
2020/12/07 09:42:41;;;;;;;8.03;6.37;;;;;;;;;;4593199;28;20529;-76
2020/12/07 09:44:57;;;;;;;9.83;6.77;;;;;;;;;;4590405;28;20487;-77
2020/12/07 09:47:12;;;;;;;9.90;7.57;;;;;;;;;;4592608;28;20475;-77
2020/12/07 09:49:31;;;;;;;10.60;7.97;;;12.20;71.20;;;;;;4590655;28;20448;-80
2020/12/07 09:51:47;;;;;;;17.43;12.70;;;;;;;;;;4592559;28;20447;-79
2020/12/07 09:54:09;;;;;;;10.63;7.50;;;;;;;;;;4590909;28;20447;-78
2020/12/07 09:56:25;;;;;;;10.37;7.57;;;;;;;;;;4591759;28;20446;-80
2020/12/07 09:58:41;;;;;;;8.73;7.80;;;12.80;73.50;;;;;;4595259;28;20486;-79
2020/12/07 10:00:57;;;;;;;11.90;7.93;;;;;;;;;;4595426;28;20444;-78
2020/12/07 10:03:16;;;;;;;10.73;8.27;;;10.60;72.00;;;;;;4593384;28;20538;-78
2020/12/07 10:05:32;;;;;;;9.50;7.73;;;10.00;71.50;;;;;;4595165;28;20435;-78
2020/12/07 10:07:48;;;;;;;10.87;7.93;;;;;;;;;;4594165;28;20451;-79
2020/12/07 10:10:07;;;;;;;12.07;7.63;;;11.50;70.20;;;;;;4594629;28;20436;-79
2020/12/07 10:12:23;;;;;;;12.33;8.20;;;10.60;72.40;;;;;;4595196;28;20441;-80
2020/12/07 10:14:42;;;;;;;10.13;8.10;;;;;;;;;;4593389;28;20472;-80
2020/12/07 10:16:58;;;;;;;11.70;7.97;;;;;;;;;;4594277;28;21093;-80
2020/12/07 10:19:15;;;;;;;11.73;8.20;;;;;;;;;;4592183;28;20454;-80
2020/12/07 10:21:33;;;;;;;11.20;8.80;;;;;;;;;;4593820;28;20950;-81
2020/12/07 10:23:49;;;;;;;11.80;8.07;;;10.50;72.90;;;;;;4593908;28;20428;-79
2020/12/07 10:26:07;;;;;;;12.77;8.70;;;;;;;;;;4595571;28;20579;-80
2020/12/07 10:28:23;;;;;;;350.80;298.07;;;11.10;73.20;;;;;;4595484;28;20451;-76
2020/12/07 10:30:44;;;;;;;19.47;14.33;;;;;;;;;;4599508;28;20434;-79
2020/12/07 10:33:00;;;;;;;11.13;9.00;;;11.10;73.30;;;;;;4576832;28;20453;-79
2020/12/07 10:35:17;;;;;;;12.10;9.30;;;;;;;;;;4594996;28;20447;-78
2020/12/07 10:37:48;;;;;;;12.13;9.10;;;;;;;;;;4594299;28;20420;-79
2020/12/07 10:40:05;;;;;;;12.87;9.90;;;;;;;;;;4594756;28;20547;-78
2020/12/07 10:42:23;;;;;;;10.20;9.10;;;;;;;;;;4593738;28;20539;-78
2020/12/07 10:44:40;;;;;;;14.13;10.10;;;;;;;;;;4576271;28;20441;-79
2020/12/07 10:46:57;;;;;;;11.40;9.03;;;;;;;;;;4576459;28;21061;-80
2020/12/07 10:49:13;;;;;;;12.57;10.30;;;;;;;;;;4592773;28;20915;-78
2020/12/07 10:51:29;;;;;;;15.80;10.23;;;10.40;73.80;;;;;;4592860;28;20532;-80
2020/12/07 10:53:46;;;;;;;15.43;10.07;;;;;;;;;;4593323;28;20440;-80
2020/12/07 10:56:03;;;;;;;13.77;9.73;;;;;;;;;;4593847;28;20448;-80
2020/12/07 10:58:20;;;;;;;12.07;9.60;;;;;;;;;;4593513;28;20464;-78
2020/12/07 11:00:38;;;;;;;10.73;8.83;;;;;;;;;;4592737;28;20796;-79
2020/12/07 11:02:57;;;;;;;11.23;9.23;;;;;;;;;;4593209;28;20534;-79
2020/12/07 11:05:13;;;;;;;13.00;9.67;;;;;;;;;;4592703;28;20479;-79
2020/12/07 11:07:29;;;;;;;13.27;10.20;;;;;;;;;;4592800;28;20583;-79
2020/12/07 11:09:45;;;;;;;13.27;10.80;;;;;;;;;;4595211;28;20448;-77
2020/12/07 11:12:04;;;;;;;12.33;9.50;;;10.50;75.80;;;;;;4591894;28;20930;-77
2020/12/07 11:14:21;;;;;;;12.87;8.80;;;;;;;;;;4594515;28;20958;-78
2020/12/07 11:16:40;;;;;;;12.27;8.80;;;;;;;;;;4592355;28;20483;-79
2020/12/07 11:18:56;;;;;;;10.50;8.43;;;12.30;78.00;;;;;;4594263;28;20450;-78
2020/12/07 11:21:15;;;;;;;11.50;7.90;;;;;;;;;;4593719;28;20806;-79
2020/12/07 11:23:31;;;;;;;9.37;7.20;;;;;;;;;;4595023;28;20834;-78
2020/12/07 11:25:47;;;;;;;8.47;7.50;;;12.20;79.20;;;;;;4594192;28;20440;-78
2020/12/07 11:28:03;;;;;;;8.83;7.87;;;10.80;78.60;;;;;;4592248;28;20680;-77
2020/12/07 11:30:20;;;;;;;11.23;8.20;;;;;;;;;;4593942;28;20587;-77
2020/12/07 11:32:36;;;;;;;14.10;8.53;;;;;;;;;;4592693;28;20498;-78
2020/12/07 11:34:52;;;;;;;11.07;8.93;;;11.30;79.20;;;;;;4591971;28;20631;-78
2020/12/07 11:37:08;;;;;;;11.40;9.10;;;;;;;;;;4593338;28;20884;-80
2020/12/07 11:39:42;;;;;;;13.27;9.40;;;;;;;;;;4592771;28;20957;-78
2020/12/07 11:42:08;;;;;;;13.43;8.93;;;;;;;;;;4593116;28;20527;-79
2020/12/07 11:44:24;;;;;;;10.87;9.70;;;;;;;;;;4593704;28;20433;-79
2020/12/07 11:46:44;;;;;;;12.73;10.57;;;;;;;;;;4592791;28;20534;-79
2020/12/07 11:49:02;;;;;;;11.90;10.10;;;;;;;;;;4592684;28;20444;-79
2020/12/07 11:51:24;;;;;;;16.30;11.80;;;10.20;75.40;;;;;;4592997;28;20641;-79
2020/12/07 11:53:40;;;;;;;14.10;10.83;;;11.10;79.60;;;;;;4592144;28;20494;-78
2020/12/07 11:55:56;;;;;;;21.87;10.63;;;10.20;78.90;;;;;;4593701;28;20474;-78
2020/12/07 11:58:14;;;;;;;11.90;9.97;;;;;;;;;;4593271;28;20602;-74
2020/12/07 12:00:30;;;;;;;14.23;11.27;;;;;;;;;;4593168;28;20444;-77
2020/12/07 12:02:47;;;;;;;26.57;19.87;;;12.00;78.40;;;;;;4592711;28;20437;-76
2020/12/07 12:05:03;;;;;;;11.63;9.77;;;10.30;77.60;;;;;;4592153;28;20867;-77
2020/12/07 12:07:20;;;;;;;11.30;9.73;;;;;;;;;;4592821;28;20582;-81
2020/12/07 12:09:37;;;;;;;12.80;9.93;;;;;;;;;;4593674;28;20437;-82
2020/12/07 12:11:53;;;;;;;12.07;9.50;;;;;;;;;;4591498;28;20451;-79
2020/12/07 12:14:10;;;;;;;12.33;9.00;;;;;;;;;;4592879;28;20950;-80
2020/12/07 12:16:28;;;;;;;15.53;9.37;;;;;;;;;;4592623;28;20443;-80
2020/12/07 12:18:53;;;;;;;13.60;8.90;;;;;;;;;;4592951;28;20431;-80
2020/12/07 12:21:09;;;;;;;12.07;8.77;;;;;;;;;;4591065;28;20802;-80
2020/12/07 12:23:25;;;;;;;12.80;8.73;;;;;;;;;;4591518;28;20567;-79
2020/12/07 12:25:42;;;;;;;11.60;9.10;;;;;;;;;;4590871;28;20542;-80
2020/12/07 12:27:58;;;;;;;14.80;9.53;;;;;;;;;;4593009;28;20483;-82
2020/12/07 12:30:14;;;;;;;12.43;9.53;;;;;;;;;;4591909;28;20498;-80
2020/12/07 12:32:31;;;;;;;11.40;8.60;;;;;;;;;;4593297;28;20455;-79
2020/12/07 12:34:48;;;;;;;10.40;8.87;;;;;;;;;;4591140;28;20465;-79
2020/12/07 12:37:04;;;;;;;14.27;10.20;;;;;;;;;;4592650;28;20448;-79
2020/12/07 12:39:21;;;;;;;12.30;8.87;;;;;;;;;;4591937;28;20958;-80
2020/12/07 12:41:37;;;;;;;11.73;9.50;;;9.90;80.50;;;;;;4592710;28;20431;-80
2020/12/07 12:43:54;;;;;;;12.70;9.40;;;;;;;;;;4574848;28;20528;-81
2020/12/07 12:46:11;;;;;;;12.07;8.60;;;;;;;;;;4590736;28;20446;-80
2020/12/07 12:48:28;;;;;;;10.33;9.30;;;;;;;;;;4592652;28;20970;-80
2020/12/07 12:50:48;;;;;;;13.20;9.40;;;;;;;;;;4590711;28;20439;-82
2020/12/07 12:53:05;;;;;;;12.10;9.43;;;;;;;;;;4593408;28;20993;-79
2020/12/07 12:55:22;;;;;;;11.07;9.87;;;;;;;;;;4592277;28;20471;-80
2020/12/07 12:57:38;;;;;;;10.77;9.23;;;;;;;;;;4593258;28;20754;-81
2020/12/07 12:59:57;;;;;;;11.63;9.00;;;;;;;;;;4592936;28;20440;-80
2020/12/07 13:02:13;;;;;;;12.00;10.30;;;;;;;;;;4592893;28;20961;-81
2020/12/07 13:04:29;;;;;;;11.30;8.73;;;;;;;;;;4591789;28;20450;-78
2020/12/07 13:06:46;;;;;;;12.27;9.90;;;;;;;;;;4592588;28;20495;-79
2020/12/07 13:09:02;;;;;;;11.23;9.53;;;;;;;;;;4591606;28;20436;-79
2020/12/07 13:11:18;;;;;;;11.00;9.30;;;;;;;;;;4592408;28;20471;-80
2020/12/07 13:13:37;;;;;;;12.17;9.73;;;;;;;;;;4591315;28;20468;-80
2020/12/07 13:15:58;;;;;;;12.80;9.33;;;;;;;;;;4592510;28;20427;-79
2020/12/07 13:18:14;;;;;;;12.93;9.47;;;;;;;;;;4591667;28;20997;-79
2020/12/07 13:20:36;;;;;;;12.13;9.17;;;;;;;;;;4591960;28;20432;-80
2020/12/07 13:23:03;;;;;;;9.77;8.77;;;;;;;;;;4591833;28;20436;-79
2020/12/07 13:25:22;;;;;;;11.10;9.90;;;;;;;;;;4591678;28;20435;-80